Time;durP1;ratioP1;P1;durP2;ratioP2;P2;SDS_P1;SDS_P2;PMS_P1;PMS_P2;Temp;Humidity;BMP_temperature;BMP_pressure;BME280_temperature;BME280_humidity;BME280_pressure;Samples;Min_cycle;Max_cycle;Signal;HPM_P1;HPM_P2
2021/04/19 00:01:33;;;;;;;8.75;6.68;;;;;;;11.82;48.29;102036.34;4876516;28;114172;-70
2021/04/19 00:04:00;;;;;;;12.95;6.43;;;;;;;11.79;48.15;102031.16;4875966;28;124800;-70
2021/04/19 00:06:27;;;;;;;11.23;6.88;;;;;;;11.76;48.32;102036.53;4876125;28;124006;-70
2021/04/19 00:08:54;;;;;;;10.20;6.70;;;;;;;11.73;48.44;102026.00;4863637;28;113389;-70
2021/04/19 00:11:22;;;;;;;12.20;7.40;;;;;;;11.70;47.99;102026.13;4878664;28;113877;-70
2021/04/19 00:13:49;;;;;;;11.68;6.75;;;;;;;11.65;48.50;102028.03;4874836;28;123106;-70
2021/04/19 00:16:15;;;;;;;11.02;7.00;;;;;;;11.60;48.43;102019.34;4874470;28;123919;-70
2021/04/19 00:18:42;;;;;;;10.48;7.18;;;;;;;11.58;48.27;102023.84;4859415;28;114114;-70
2021/04/19 00:21:10;;;;;;;10.35;6.80;;;;;;;11.53;48.19;102023.09;4875909;28;114536;-69
2021/04/19 00:23:37;;;;;;;15.05;7.10;;;;;;;11.48;48.46;102016.16;4875461;28;124731;-69
2021/04/19 00:26:03;;;;;;;9.65;6.72;;;;;;;11.44;48.78;102019.81;4878273;28;124321;-69
2021/04/19 00:28:30;;;;;;;12.15;7.22;;;;;;;11.41;48.63;102009.28;4845898;28;113411;-70
2021/04/19 00:30:57;;;;;;;12.43;7.10;;;;;;;11.37;48.73;102012.94;4858387;28;114639;-70
2021/04/19 00:33:24;;;;;;;16.23;7.35;;;;;;;11.33;48.77;102013.94;4875771;28;124413;-69
2021/04/19 00:35:50;;;;;;;10.73;7.15;;;;;;;11.29;48.63;102020.25;4873667;28;124429;-69
2021/04/19 00:38:17;;;;;;;10.68;7.13;;;;;;;11.25;48.60;102008.88;4879852;28;114056;-69
2021/04/19 00:40:44;;;;;;;11.65;7.30;;;;;;;11.23;48.65;102025.75;4863081;28;113671;-70
2021/04/19 00:43:12;;;;;;;13.25;7.28;;;;;;;11.20;48.73;102016.09;4874325;28;123785;-70
2021/04/19 00:45:39;;;;;;;11.75;7.00;;;;;;;11.18;48.87;102011.75;4844960;28;122925;-70
2021/04/19 00:48:07;;;;;;;10.95;7.32;;;;;;;11.15;48.56;102011.81;4860049;28;114335;-70
2021/04/19 00:50:34;;;;;;;12.57;7.47;;;;;;;11.14;49.04;102007.44;4876769;28;113684;-70
2021/04/19 00:53:04;;;;;;;13.88;8.07;;;;;;;11.12;49.01;102011.94;4878556;28;124354;-70
2021/04/19 00:55:31;;;;;;;11.88;8.30;;;;;;;11.10;48.97;102004.88;4881145;28;124259;-70
2021/04/19 00:57:58;;;;;;;11.00;7.38;;;;;;;11.09;49.02;102003.16;4878093;28;115082;-70
2021/04/19 01:00:33;;;;;;;18.42;7.75;;;;;;;11.06;49.05;101997.94;4875966;28;113983;-70
2021/04/19 01:03:00;;;;;;;11.60;7.90;;;;;;;11.06;48.96;102008.53;4847294;28;124987;-70
2021/04/19 01:05:30;;;;;;;12.05;7.78;;;;;;;11.03;48.72;101998.00;4859890;28;122163;-70
2021/04/19 01:07:59;;;;;;;11.38;7.50;;;;;;;11.01;48.62;102005.13;4877277;28;115482;-70
2021/04/19 01:10:25;;;;;;;12.63;7.53;;;;;;;10.99;48.67;102001.66;4863422;28;115272;-70
2021/04/19 01:12:52;;;;;;;11.75;7.43;;;;;;;10.97;48.98;102003.50;4866014;28;123871;-70
2021/04/19 01:15:19;;;;;;;15.02;7.95;;;;;;;10.95;49.08;101994.72;4878208;28;124240;-70
2021/04/19 01:17:49;;;;;;;13.38;7.93;;;;;;;10.92;48.88;101992.13;4876353;28;114432;-70
2021/04/19 01:20:22;;;;;;;14.57;7.90;;;;;;;10.91;49.13;101995.72;4877054;28;114029;-70
2021/04/19 01:22:50;;;;;;;14.98;8.13;;;;;;;10.89;49.11;101994.91;4873745;28;124344;-70
2021/04/19 01:25:28;;;;;;;12.35;8.13;;;;;;;10.85;49.18;101998.50;4879043;28;124050;-70
2021/04/19 01:27:56;;;;;;;10.38;7.93;;;;;;;10.84;49.39;101994.16;4857419;28;114659;-69
2021/04/19 01:30:29;;;;;;;13.20;8.40;;;;;;;10.81;49.42;101992.47;4864627;28;113518;-69
2021/04/19 01:32:57;;;;;;;12.85;8.00;;;;;;;10.76;49.13;101985.53;4858769;28;122664;-69
2021/04/19 01:35:25;;;;;;;13.68;8.15;;;;;;;10.73;49.37;101993.56;4863063;28;123170;-68
2021/04/19 01:37:52;;;;;;;13.95;8.30;;;;;;;10.67;49.38;101984.88;4874920;28;114706;-69
2021/04/19 01:40:19;;;;;;;15.25;8.45;;;;;;;10.63;49.44;101988.50;4859946;28;113365;-69
2021/04/19 01:42:47;;;;;;;13.07;8.27;;;;;;;10.59;49.77;101984.22;4873285;28;124243;-69
2021/04/19 01:45:16;;;;;;;15.73;8.18;;;;;;;10.56;49.34;101981.63;4859775;28;123043;-69
2021/04/19 01:47:44;;;;;;;13.52;8.35;;;;;;;10.53;49.86;101981.75;4863375;28;113815;-69
2021/04/19 01:50:21;;;;;;;15.38;8.80;;;;;;;10.50;50.13;101984.47;4861273;28;114311;-69
2021/04/19 01:52:53;;;;;;;11.50;8.40;;;;;;;10.49;49.73;101980.06;4859082;28;123955;-69
2021/04/19 01:55:24;;;;;;;16.65;8.25;;;;;;;10.47;49.75;101980.13;4861119;28;124157;-69
2021/04/19 01:58:12;;;;;;;13.43;8.32;;;;;;;10.46;50.06;101974.84;4862142;28;114301;-69
2021/04/19 02:00:42;;;;;;;14.73;8.73;;;;;;;10.47;49.78;101981.88;4874880;28;115651;-69
2021/04/19 02:03:24;;;;;;;12.38;7.50;;;;;;;10.43;49.82;101975.78;4875679;28;124223;-68
2021/04/19 02:05:59;;;;;;;14.85;8.85;;;;;;;10.40;49.88;101975.88;4876324;28;124549;-69
2021/04/19 02:08:32;;;;;;;11.88;8.38;;;;;;;10.39;50.08;101973.28;4843270;28;114099;-69
2021/04/19 02:11:47;;;;;;;13.48;8.70;;;;;;;10.37;50.02;101975.97;4861949;28;113373;-69
2021/04/19 02:14:16;;;;;;;15.60;8.65;;;;;;;10.36;50.20;101968.03;4845996;28;123354;-69
2021/04/19 02:16:55;;;;;;;14.57;9.40;;;;;;;10.35;50.22;101974.28;4859396;28;123018;-69
2021/04/19 02:20:06;;;;;;;13.30;8.73;;;;;;;10.32;50.06;101978.75;4867791;28;113612;-69
2021/04/19 02:22:37;;;;;;;14.00;8.40;;;;;;;10.32;50.16;101978.75;4781274;29;114291;-69
2021/04/19 02:25:18;;;;;;;13.23;8.23;;;;;;;10.29;49.98;101973.47;4865345;28;124210;-69
2021/04/19 02:27:54;;;;;;;13.50;8.63;;;;;;;10.28;50.24;101971.75;4861333;28;124157;-69
2021/04/19 02:30:22;;;;;;;13.02;8.52;;;;;;;10.27;49.84;101975.28;4865324;28;113570;-69
2021/04/19 02:32:51;;;;;;;13.43;8.52;;;;;;;10.26;50.20;101981.47;4866193;28;113497;-69
2021/04/19 02:35:24;;;;;;;13.63;8.30;;;;;;;10.23;50.41;101981.59;4868647;28;123102;-69
2021/04/19 02:38:06;;;;;;;15.25;8.32;;;;;;;10.21;50.27;101986.06;4863475;28;124176;-69
2021/04/19 02:40:36;;;;;;;13.85;8.80;;;;;;;10.16;50.50;101985.28;4880371;28;114695;-69
2021/04/19 02:43:05;;;;;;;13.15;8.35;;;;;;;10.14;50.40;101979.16;4875647;28;114337;-69
2021/04/19 02:45:35;;;;;;;14.90;8.77;;;;;;;10.10;50.71;101978.38;4841701;28;123210;-69
2021/04/19 02:48:08;;;;;;;16.48;9.57;;;;;;;10.08;50.39;101974.03;4885151;22;123296;-71
2021/04/19 02:50:52;;;;;;;15.52;8.35;;;;;;;10.05;50.49;101980.25;4883435;28;112780;-74
2021/04/19 02:53:21;;;;;;;13.93;9.00;;;;;;;10.04;50.91;101982.94;4915873;28;114054;-74
2021/04/19 02:55:49;;;;;;;13.25;9.05;;;;;;;10.01;50.93;101983.03;4896460;28;122974;-73
2021/04/19 02:58:37;;;;;;;16.00;8.93;;;;;;;9.99;50.74;101980.41;4910571;28;124244;-72
2021/04/19 03:01:07;;;;;;;14.25;9.23;;;;;;;9.97;50.83;101970.78;4908674;28;114659;-72
2021/04/19 03:03:36;;;;;;;15.45;9.23;;;;;;;9.91;50.99;101967.38;4911545;28;113900;-72
2021/04/19 03:06:05;;;;;;;15.15;8.95;;;;;;;9.88;50.99;101969.22;4893882;28;123370;-72
2021/04/19 03:08:39;;;;;;;16.08;8.80;;;;;;;9.83;51.20;101964.03;4893519;28;122927;-72
2021/04/19 03:11:15;;;;;;;17.10;9.73;;;;;;;9.80;50.94;101968.53;4895166;28;114005;-72
2021/04/19 03:13:44;;;;;;;16.60;9.50;;;;;;;9.77;51.26;101966.81;4909741;28;114183;-72
2021/04/19 03:16:23;;;;;;;17.55;8.95;;;;;;;9.75;51.51;101968.63;4907529;28;123247;-72
2021/04/19 03:18:52;;;;;;;17.83;10.00;;;;;;;9.73;51.59;101967.78;4893788;28;123359;-72
2021/04/19 03:21:21;;;;;;;15.77;9.63;;;;;;;9.71;51.61;101964.31;4911744;28;114548;-72
2021/04/19 03:24:07;;;;;;;16.83;10.10;;;;;;;9.70;51.51;101957.28;4908874;28;114286;-72
2021/04/19 03:27:00;;;;;;;17.63;9.80;;;;;;;9.67;51.41;101957.38;4910924;28;124397;-72
2021/04/19 03:29:31;;;;;;;16.35;10.25;;;;;;;9.66;51.58;101958.25;4892441;28;122979;-72
2021/04/19 03:32:11;;;;;;;22.65;10.27;;;;;;;9.65;52.08;101964.47;4887693;28;113660;-72
2021/04/19 03:34:45;;;;;;;17.92;10.05;;;;;;;9.64;51.71;101957.44;4895028;28;114125;-72
2021/04/19 03:37:19;;;;;;;17.60;9.95;;;;;;;9.63;51.67;101958.34;4892099;28;124138;-72
2021/04/19 03:40:09;;;;;;;16.10;10.25;;;;;;;9.62;51.75;101964.53;4910468;28;123273;-72
2021/04/19 03:42:40;;;;;;;18.00;9.70;;;;;;;9.62;51.79;101956.59;4909923;28;114680;-72
2021/04/19 03:45:14;;;;;;;15.60;9.93;;;;;;;9.61;51.93;101958.38;4895303;28;113571;-72
2021/04/19 03:48:01;;;;;;;13.85;9.07;;;;;;;9.58;51.68;101957.56;4910906;28;124670;-72
2021/04/19 03:50:57;;;;;;;16.15;10.15;;;;;;;9.50;51.47;101961.25;4892325;28;123041;-72
2021/04/19 03:53:26;;;;;;;15.82;9.70;;;;;;;9.47;51.82;101961.31;4899099;28;113632;-73
2021/04/19 03:55:56;;;;;;;16.73;9.88;;;;;;;9.43;51.86;101959.66;4897024;28;114020;-72
2021/04/19 03:58:27;;;;;;;16.73;9.90;;;;;;;9.39;51.80;101952.69;4898611;28;123138;-72
2021/04/19 04:00:55;;;;;;;20.98;10.65;;;;;;;9.34;52.19;101954.56;4891480;28;124081;-73
2021/04/19 04:03:42;;;;;;;20.63;10.98;;;;;;;9.30;52.25;101951.13;4894872;28;113924;-72
2021/04/19 04:06:16;;;;;;;21.27;11.15;;;;;;;9.28;52.40;101947.63;4897589;28;113457;-73
2021/04/19 04:08:45;;;;;;;20.23;10.82;;;;;;;9.28;52.49;101960.00;4896725;28;122603;-74
2021/04/19 04:11:16;;;;;;;16.45;10.52;;;;;;;9.28;52.93;101960.00;4885950;28;123663;-74
2021/04/19 04:13:44;;;;;;;18.88;10.55;;;;;;;9.28;52.41;101960.00;4894165;28;114914;-74
2021/04/19 04:16:12;;;;;;;19.10;10.80;;;;;;;9.28;52.89;101960.00;4916625;28;118069;-74
2021/04/19 04:18:55;;;;;;;21.38;11.07;;;;;;;9.30;52.82;101968.75;4896042;28;124320;-75
2021/04/19 04:21:27;;;;;;;19.75;11.05;;;;;;;9.29;52.91;101961.75;4896752;28;123648;-74
2021/04/19 04:24:00;;;;;;;16.33;10.63;;;;;;;9.27;53.09;101958.28;4896240;28;113290;-75
2021/04/19 04:26:29;;;;;;;20.45;10.98;;;;;;;9.26;53.00;101967.09;4902180;28;112996;-74
2021/04/19 04:28:57;;;;;;;22.75;11.60;;;;;;;9.24;53.21;101963.63;4900296;28;122567;-74
2021/04/19 04:31:31;;;;;;;20.38;11.30;;;;;;;9.22;53.13;101962.78;4900449;28;123267;-74
2021/04/19 04:34:03;;;;;;;20.13;11.02;;;;;;;9.20;53.10;101967.22;4879259;28;115290;-74
2021/04/19 04:36:30;;;;;;;20.13;11.13;;;;;;;9.16;53.67;101969.94;4894084;28;114836;-74
2021/04/19 04:39:03;;;;;;;22.23;12.27;;;;;;;9.16;53.51;101959.34;4907635;28;123348;-75
2021/04/19 04:41:37;;;;;;;18.13;11.83;;;;;;;9.14;53.84;101958.50;4895158;28;123545;-74
2021/04/19 04:44:07;;;;;;;20.50;12.27;;;;;;;9.14;54.22;101962.94;4914172;28;114366;-75
2021/04/19 04:46:40;;;;;;;26.42;13.70;;;;;;;9.15;54.19;101960.28;4894531;28;113925;-74
2021/04/19 04:49:20;;;;;;;23.67;13.63;;;;;;;9.15;54.44;101965.56;4911178;28;123806;-74
2021/04/19 04:51:48;;;;;;;25.70;13.70;;;;;;;9.15;54.51;101965.56;4890078;28;123695;-74
2021/04/19 04:54:17;;;;;;;26.33;13.82;;;;;;;9.19;54.65;101966.34;4895229;28;114769;-75
2021/04/19 04:56:49;;;;;;;25.08;13.77;;;;;;;9.23;54.84;101967.16;4912740;28;113800;-74
2021/04/19 04:59:16;;;;;;;22.70;13.23;;;;;;;9.26;54.60;101967.94;4879328;28;123541;-74
2021/04/19 05:01:44;;;;;;;24.92;13.27;;;;;;;9.28;54.75;101965.28;4915478;28;123034;-75
2021/04/19 05:04:11;;;;;;;21.35;14.07;;;;;;;9.32;55.01;101966.94;4896821;28;114088;-74
2021/04/19 05:06:38;;;;;;;26.27;13.57;;;;;;;9.34;54.97;101965.13;4914074;28;113862;-74
2021/04/19 05:09:09;;;;;;;21.17;13.55;;;;;;;9.36;55.49;101968.63;4912826;28;124275;-75
2021/04/19 05:11:40;;;;;;;20.60;13.13;;;;;;;9.39;55.22;101971.19;4897542;28;123408;-74
2021/04/19 05:14:07;;;;;;;26.05;14.10;;;;;;;9.41;55.39;101969.41;4912926;28;114190;-75
2021/04/19 05:16:34;;;;;;;22.15;13.63;;;;;;;9.45;55.28;101972.84;4913901;28;112861;-74
2021/04/19 05:19:02;;;;;;;24.83;14.75;;;;;;;9.46;55.23;101970.16;4894611;28;124064;-75
2021/04/19 05:21:30;;;;;;;25.65;14.13;;;;;;;9.49;55.52;101975.41;4912101;28;124242;-75
2021/04/19 05:23:57;;;;;;;24.33;13.68;;;;;;;9.53;55.66;101966.50;4909767;28;115167;-75
2021/04/19 05:26:24;;;;;;;26.30;14.70;;;;;;;9.55;55.56;101969.97;4879767;28;114045;-75
2021/04/19 05:28:54;;;;;;;26.00;14.73;;;;;;;9.58;55.48;101970.81;4913171;28;123374;-75
2021/04/19 05:31:22;;;;;;;25.52;15.02;;;;;;;9.61;55.56;101963.66;4910073;28;124089;-75
2021/04/19 05:33:56;;;;;;;21.40;13.65;;;;;;;9.62;55.72;101960.09;4913236;28;113896;-75
2021/04/19 05:36:24;;;;;;;24.00;15.10;;;;;;;9.66;55.61;101960.91;4911965;28;113973;-75
2021/04/19 05:38:52;;;;;;;25.23;14.50;;;;;;;9.68;55.76;101962.63;4913458;28;123920;-74
2021/04/19 05:41:20;;;;;;;22.00;14.57;;;;;;;9.71;55.74;101966.97;4910111;28;123630;-75
2021/04/19 05:43:47;;;;;;;22.88;14.95;;;;;;;9.76;55.78;101967.75;4905664;28;113575;-75
2021/04/19 05:46:16;;;;;;;26.13;14.98;;;;;;;9.79;56.00;101967.66;4892568;28;112581;-75
2021/04/19 05:48:44;;;;;;;24.60;15.10;;;;;;;9.81;55.71;101976.41;4912070;28;125727;-75
2021/04/19 05:51:15;;;;;;;25.00;14.93;;;;;;;9.86;56.07;101977.19;4912218;28;123884;-75
2021/04/19 05:53:42;;;;;;;22.85;15.48;;;;;;;9.90;55.90;101975.34;4894111;28;113663;-75
2021/04/19 05:56:29;;;;;;;22.52;15.00;;;;;;;9.94;55.67;101977.88;4913031;28;114007;-75
2021/04/19 05:59:09;;;;;;;24.17;14.82;;;;;;;10.00;56.00;101976.88;4911596;28;123917;-75
2021/04/19 06:01:41;;;;;;;24.23;14.30;;;;;;;10.06;56.12;101987.28;4907534;28;123423;-75
2021/04/19 06:04:15;;;;;;;24.08;14.80;;;;;;;10.10;55.99;101983.66;4910021;28;114759;-75
2021/04/19 06:06:54;;;;;;;28.35;16.33;;;;;;;10.13;55.83;101982.72;4892926;28;113222;-74
2021/04/19 06:09:36;;;;;;;24.25;15.82;;;;;;;10.18;55.94;101983.47;4899447;28;123186;-75
2021/04/19 06:12:29;;;;;;;26.13;15.88;;;;;;;10.22;55.72;101977.19;4911456;28;124733;-73
2021/04/19 06:15:04;;;;;;;25.20;15.10;;;;;;;10.26;55.80;101973.53;4910854;28;115157;-73
2021/04/19 06:17:33;;;;;;;27.95;15.68;;;;;;;10.29;56.06;101972.63;4917166;28;115732;-73
2021/04/19 06:20:00;;;;;;;23.00;15.23;;;;;;;10.31;55.72;101976.97;4917096;28;123848;-73
2021/04/19 06:22:27;;;;;;;30.73;16.90;;;;;;;10.32;55.81;101989.31;4904634;28;123662;-73
2021/04/19 06:24:54;;;;;;;26.25;16.63;;;;;;;10.35;55.72;101998.09;4892834;28;113423;-73
2021/04/19 06:27:23;;;;;;;32.28;17.30;;;;;;;10.36;56.06;102010.41;4912009;28;114222;-73
2021/04/19 06:29:50;;;;;;;26.27;16.05;;;;;;;10.36;56.16;102002.47;4910362;28;124229;-73
2021/04/19 06:32:21;;;;;;;27.30;16.92;;;;;;;10.35;56.27;101992.81;4895926;28;124027;-74
2021/04/19 06:34:49;;;;;;;26.58;17.25;;;;;;;10.33;56.63;101985.75;4879137;28;112310;-73
2021/04/19 06:37:18;;;;;;;27.00;16.17;;;;;;;10.36;56.29;101986.59;4912001;28;114149;-74
2021/04/19 06:39:45;;;;;;;28.50;16.73;;;;;;;10.37;56.21;101975.97;4889320;28;124216;-74
2021/04/19 06:42:12;;;;;;;30.25;17.35;;;;;;;10.40;56.52;101981.19;4912042;28;124253;-73
2021/04/19 06:44:39;;;;;;;26.73;16.95;;;;;;;10.45;56.63;101983.69;4913185;28;115045;-74
2021/04/19 06:47:06;;;;;;;27.80;17.02;;;;;;;10.47;56.37;101987.16;4894786;28;112022;-73
2021/04/19 06:49:36;;;;;;;27.52;16.42;;;;;;;10.50;56.65;101973.84;4908634;28;123905;-73
2021/04/19 06:52:03;;;;;;;24.77;16.80;;;;;;;10.52;56.48;101974.69;4912652;28;123488;-73
2021/04/19 06:54:30;;;;;;;25.95;16.40;;;;;;;10.55;56.40;101979.91;4892929;28;113829;-73
2021/04/19 06:56:58;;;;;;;28.35;16.85;;;;;;;10.58;56.48;101989.53;4913731;28;114215;-74
2021/04/19 06:59:26;;;;;;;30.25;18.20;;;;;;;10.59;56.44;101976.25;4898096;28;122357;-74
2021/04/19 07:01:54;;;;;;;27.52;17.75;;;;;;;10.58;56.61;101989.53;4912785;28;123637;-74
2021/04/19 07:04:26;;;;;;;26.55;17.73;;;;;;;10.57;56.76;101988.69;4904075;28;114270;-74
2021/04/19 07:06:54;;;;;;;28.85;17.55;;;;;;;10.56;56.62;101976.34;4916211;28;115056;-73
2021/04/19 07:09:27;;;;;;;26.65;17.80;;;;;;;10.54;56.89;101962.28;4903250;28;122898;-74
2021/04/19 07:12:08;;;;;;;27.35;17.98;;;;;;;10.54;57.15;101959.63;4917976;28;124032;-76
2021/04/19 07:14:37;;;;;;;29.05;18.40;;;;;;;10.58;56.77;101953.31;4911620;28;114498;-75
2021/04/19 07:17:05;;;;;;;29.42;18.67;;;;;;;10.61;57.07;101953.25;4911216;28;113735;-75
2021/04/19 07:19:33;;;;;;;31.52;19.70;;;;;;;10.63;57.31;101956.72;4911782;28;124744;-74
2021/04/19 07:22:00;;;;;;;32.80;19.15;;;;;;;10.66;57.09;101988.44;4891318;28;124055;-75
2021/04/19 07:24:27;;;;;;;32.83;20.67;;;;;;;10.67;57.68;101995.47;4894797;28;114134;-75
2021/04/19 07:26:58;;;;;;;31.58;20.05;;;;;;;10.64;57.67;101989.38;4894560;28;113072;-76
2021/04/19 07:29:25;;;;;;;33.08;19.67;;;;;;;10.63;57.31;101993.81;4883827;28;124206;-75
2021/04/19 07:31:54;;;;;;;33.03;20.33;;;;;;;10.62;57.89;101992.06;4911896;28;124038;-75
2021/04/19 07:34:26;;;;;;;34.17;20.83;;;;;;;10.63;57.64;101993.81;4911065;28;114390;-75
2021/04/19 07:37:07;;;;;;;32.85;21.08;;;;;;;10.62;57.89;101989.41;4879001;28;113950;-75
2021/04/19 07:39:36;;;;;;;30.83;19.83;;;;;;;10.62;57.77;101986.75;4911835;28;125671;-76
2021/04/19 07:42:06;;;;;;;34.13;21.10;;;;;;;10.65;58.25;101981.38;4909325;28;122626;-76
2021/04/19 07:44:44;;;;;;;38.17;21.67;;;;;;;10.68;58.08;101978.66;4893205;28;114307;-75
2021/04/19 07:47:31;;;;;;;35.53;22.45;;;;;;;10.69;58.01;101983.03;4895666;28;113379;-74
2021/04/19 07:49:59;;;;;;;35.08;21.08;;;;;;;10.72;58.11;101982.09;4895442;28;123436;-75
2021/04/19 07:52:28;;;;;;;34.38;21.92;;;;;;;10.76;58.45;101982.91;4898233;28;123726;-76
2021/04/19 07:55:10;;;;;;;40.08;22.52;;;;;;;10.78;58.35;101981.06;4894913;28;114272;-76
2021/04/19 07:57:58;;;;;;;34.70;21.60;;;;;;;10.81;58.47;101975.66;4902572;28;114954;-75
2021/04/19 08:00:30;;;;;;;35.75;21.48;;;;;;;10.83;58.79;101973.84;4896784;28;122973;-76
2021/04/19 08:03:02;;;;;;;37.10;22.08;;;;;;;10.88;58.52;101971.94;4909859;28;122589;-76
2021/04/19 08:05:50;;;;;;;33.95;20.98;;;;;;;10.92;58.71;101989.50;4913544;28;114297;-75
2021/04/19 08:08:27;;;;;;;35.20;22.90;;;;;;;10.99;58.53;101985.75;4882879;28;112481;-74
2021/04/19 08:11:14;;;;;;;33.00;22.60;;;;;;;11.02;58.38;101985.69;4915978;28;122417;-74
2021/04/19 08:13:42;;;;;;;32.75;20.95;;;;;;;11.07;58.35;101986.41;4913248;28;123843;-74
2021/04/19 08:16:16;;;;;;;40.08;22.88;;;;;;;11.10;58.55;101983.66;4885310;28;112994;-76
2021/04/19 08:18:49;;;;;;;38.63;24.50;;;;;;;11.15;58.77;101983.56;4920242;28;113928;-74
2021/04/19 08:21:26;;;;;;;38.25;23.85;;;;;;;11.17;59.01;101983.47;4896471;28;124195;-74
2021/04/19 08:23:53;;;;;;;38.47;24.83;;;;;;;11.23;58.96;101988.63;4910228;28;123145;-74
2021/04/19 08:26:20;;;;;;;37.30;24.20;;;;;;;11.27;58.64;101984.97;4915067;28;114319;-75
2021/04/19 08:28:48;;;;;;;42.53;25.63;;;;;;;11.31;58.90;101986.59;4914417;28;112836;-75
2021/04/19 08:31:17;;;;;;;39.60;24.83;;;;;;;11.35;58.86;101988.25;4914701;28;123809;-76
2021/04/19 08:33:44;;;;;;;36.55;25.00;;;;;;;11.41;59.00;101980.09;4914221;28;124375;-75
2021/04/19 08:36:15;;;;;;;37.92;25.58;;;;;;;11.47;58.94;101982.59;4907682;28;113874;-76
2021/04/19 08:38:42;;;;;;;35.72;24.75;;;;;;;11.52;59.07;101978.91;4893767;28;113350;-75
2021/04/19 08:41:10;;;;;;;41.65;26.48;;;;;;;11.59;58.98;101980.47;4911017;28;122999;-76
2021/04/19 08:43:39;;;;;;;36.90;25.77;;;;;;;11.64;59.12;101978.53;4898990;28;123024;-75
2021/04/19 08:46:08;;;;;;;36.03;26.13;;;;;;;11.71;59.04;101974.75;4912734;28;114993;-76
2021/04/19 08:48:35;;;;;;;40.10;27.73;;;;;;;11.78;59.01;101976.31;4911476;28;115007;-75
2021/04/19 08:51:04;;;;;;;43.85;27.73;;;;;;;11.86;59.08;101976.94;4911803;28;123798;-75
2021/04/19 08:53:31;;;;;;;39.95;27.10;;;;;;;11.93;59.21;101979.44;4936395;23;126797;-72
2021/04/19 08:56:02;;;;;;;38.50;26.23;;;;;;;11.99;58.92;101980.09;4919774;28;114433;-72
2021/04/19 08:58:30;;;;;;;43.45;26.88;;;;;;;12.07;59.35;101982.50;4903959;28;114497;-72
2021/04/19 09:01:00;;;;;;;39.08;26.60;;;;;;;12.16;59.34;101982.19;4908962;28;123592;-72
2021/04/19 09:03:27;;;;;;;40.75;28.13;;;;;;;12.22;58.99;101976.69;4898274;28;123467;-72
2021/04/19 09:05:53;;;;;;;42.80;28.88;;;;;;;12.31;59.33;101975.50;4896103;28;113493;-72
2021/04/19 09:08:20;;;;;;;38.17;26.70;;;;;;;12.40;59.22;101984.94;4895901;28;114403;-72
2021/04/19 09:11:06;;;;;;;38.03;25.92;;;;;;;12.45;59.00;101982.97;4902331;28;124366;-72
2021/04/19 09:13:34;;;;;;;;;;;;;;;12.51;58.41;101988.09;4889082;28;121817;-72
2021/04/19 09:16:15;;;;;;;35.65;25.13;;;;;;;12.59;58.51;101986.03;4892146;28;113233;-72
2021/04/19 09:18:56;;;;;;;40.75;27.90;;;;;;;12.62;58.84;101985.94;4912834;28;114194;-72
2021/04/19 09:21:39;;;;;;;32.85;26.15;;;;;;;12.65;58.42;101991.13;4895428;28;123819;-72
2021/04/19 09:24:09;;;;;;;35.92;26.80;;;;;;;12.71;59.14;101989.19;4903725;28;124222;-72
2021/04/19 09:26:55;;;;;;;37.38;27.23;;;;;;;12.76;58.53;101987.25;4905497;28;114352;-71
2021/04/19 09:29:25;;;;;;;35.58;25.67;;;;;;;12.81;58.63;101993.25;4896897;28;113391;-72
2021/04/19 09:32:08;;;;;;;34.70;24.63;;;;;;;12.87;58.76;102000.16;4891248;28;123177;-72
2021/04/19 09:34:39;;;;;;;33.78;24.83;;;;;;;12.91;58.75;101993.78;4898750;28;126005;-72
2021/04/19 09:37:07;;;;;;;37.45;27.00;;;;;;;12.94;58.87;101991.91;4879744;28;114934;-72
2021/04/19 09:40:05;;;;;;;39.63;27.45;;;;;;;12.94;59.08;101989.25;4900820;28;116953;-72
2021/04/19 09:42:54;;;;;;;39.60;27.55;;;;;;;12.97;59.10;101985.59;4881581;28;123804;-72
2021/04/19 09:45:46;;;;;;;40.50;28.70;;;;;;;12.98;59.24;101988.19;4911470;28;124723;-72
2021/04/19 09:48:27;;;;;;;39.78;29.58;;;;;;;13.04;59.25;101993.28;4900625;28;114804;-72
2021/04/19 09:51:12;;;;;;;44.25;30.15;;;;;;;13.04;59.25;101997.75;4911560;28;113983;-71
2021/04/19 09:53:47;;;;;;;42.22;30.67;;;;;;;13.08;59.25;101993.19;4901691;28;124173;-72
2021/04/19 09:56:14;;;;;;;44.60;32.60;;;;;;;13.13;59.44;101991.19;4906393;28;123900;-72
2021/04/19 09:58:41;;;;;;;40.53;29.45;;;;;;;13.16;59.51;101985.75;4908343;28;115137;-72
2021/04/19 10:01:09;;;;;;;37.53;29.17;;;;;;;13.20;59.53;101990.03;4905658;28;96836;-72
2021/04/19 10:03:37;;;;;;;36.45;28.17;;;;;;;13.25;59.42;101980.09;4909955;28;123813;-72
2021/04/19 10:06:06;;;;;;;38.40;27.77;;;;;;;13.31;59.59;101990.53;4912189;28;123761;-72
2021/04/19 10:08:40;;;;;;;38.33;27.85;;;;;;;13.37;59.71;101985.00;4912007;28;114496;-72
2021/04/19 10:11:08;;;;;;;34.47;26.37;;;;;;;13.44;59.88;101986.47;4889762;28;113933;-72
2021/04/19 10:13:37;;;;;;;31.90;24.40;;;;;;;13.52;59.81;101977.31;4897557;28;124079;-72
2021/04/19 10:16:12;;;;;;;28.77;23.60;;;;;;;13.59;59.63;101973.50;4891564;28;124735;-72
2021/04/19 10:18:42;;;;;;;32.35;24.40;;;;;;;13.69;59.80;101974.84;4899006;28;114332;-72
2021/04/19 10:21:23;;;;;;;28.58;22.65;;;;;;;13.79;59.78;101970.06;4899796;28;112874;-72
2021/04/19 10:23:49;;;;;;;28.83;22.20;;;;;;;13.90;59.55;101969.59;4901715;28;124035;-72
2021/04/19 10:26:16;;;;;;;32.67;23.55;;;;;;;13.99;59.57;101972.78;4885546;28;122737;-72
2021/04/19 10:28:45;;;;;;;27.38;21.40;;;;;;;14.10;59.65;101968.78;4901871;28;115075;-72
2021/04/19 10:31:14;;;;;;;29.25;22.48;;;;;;;14.18;59.28;101967.53;4892432;28;115751;-72
2021/04/19 10:33:43;;;;;;;27.77;21.88;;;;;;;14.28;59.36;101975.13;4891485;28;123527;-73
2021/04/19 10:36:22;;;;;;;26.27;21.30;;;;;;;14.38;58.97;101979.16;4893150;28;122961;-72
2021/04/19 10:38:51;;;;;;;29.17;20.92;;;;;;;14.45;58.66;101969.97;4898219;28;113640;-72
2021/04/19 10:41:36;;;;;;;29.20;21.52;;;;;;;14.52;58.75;101971.44;4908858;28;114516;-72
2021/04/19 10:44:05;;;;;;;26.88;21.55;;;;;;;14.60;58.73;101969.31;4893510;28;123280;-73
2021/04/19 10:46:34;;;;;;;26.83;20.77;;;;;;;14.67;58.44;101969.03;4908873;28;123019;-72
2021/04/19 10:49:02;;;;;;;27.23;21.25;;;;;;;14.74;58.27;101959.84;4909552;28;115229;-72
2021/04/19 10:51:39;;;;;;;27.13;21.40;;;;;;;14.81;58.40;101963.97;4892738;28;112146;-72
2021/04/19 10:54:08;;;;;;;27.02;19.92;;;;;;;14.90;58.05;101960.88;4879652;28;124153;-72
2021/04/19 10:56:39;;;;;;;27.02;21.55;;;;;;;15.01;58.10;101951.53;4895942;28;124092;-73
2021/04/19 10:59:08;;;;;;;28.75;21.20;;;;;;;15.13;57.89;101956.31;4878495;28;113728;-72
2021/04/19 11:01:41;;;;;;;26.25;20.65;;;;;;;15.23;57.17;101952.25;4896099;28;114514;-72
2021/04/19 11:04:09;;;;;;;28.95;20.80;;;;;;;15.29;57.30;101956.44;4894138;28;122895;-72
2021/04/19 11:06:37;;;;;;;26.45;20.42;;;;;;;15.33;57.27;101953.56;4895534;28;123988;-72
2021/04/19 11:09:16;;;;;;;27.77;20.80;;;;;;;15.38;57.09;101951.53;4897965;28;114445;-72
2021/04/19 11:11:45;;;;;;;25.97;20.70;;;;;;;15.47;57.28;101949.38;4887235;28;114028;-72
2021/04/19 11:14:17;;;;;;;28.75;20.98;;;;;;;15.55;56.90;101953.38;4894385;28;124700;-72
2021/04/19 11:16:50;;;;;;;26.08;20.98;;;;;;;15.68;56.75;101948.31;4884305;28;122908;-72
2021/04/19 11:19:53;;;;;;;26.63;22.02;;;;;;;15.79;56.53;101949.66;4904219;28;115535;-72
2021/04/19 11:22:21;;;;;;;22.92;19.42;;;;;;;15.92;56.15;101950.78;4873069;28;115207;-72
2021/04/19 11:25:11;;;;;;;25.17;21.00;;;;;;;16.00;56.25;101951.25;4896632;28;124308;-72
2021/04/19 11:27:37;;;;;;;24.42;19.83;;;;;;;16.10;56.14;101955.16;4913280;28;124606;-72
2021/04/19 11:30:26;;;;;;;24.88;20.30;;;;;;;16.17;55.58;101949.53;4897831;28;114133;-71